Latest Weather Observations for Kingfish B

IDV60801

Issued at 10:02 am EST Wednesday 2 September 2015 (issued every 30 minutes, with the page automatically refreshed every 10 minutes)

About weather observations | Map of weather stations | Latest weather observations for VIC | Other Formats
Station Details ID: 400139 Name: KINGFISH B (PLATFORM) Lat: -38.60 Lon: 148.19 Height: 31.4 m
Data from the previous 72 hours. | See also: Recent months for locations in Victoria
Date/Time
EST
Temp
°C
App
Temp
°C
Dew
Point
Rel
Hum
%
Delta-T
°C
Wind Press
QNH
hPa
Press
MSL
hPa
Rain
since 9 am
mm
Dir
 
Spd
km/h
Gust
km/h
Spd
kts
Gust
kts
02/08:50am 13.5 10.0 7.1 65 3.1 NNE 15 19 8 10 1013.6 - -
02/08:40am 13.9 10.1 7.4 65 3.2 NNE 17 19 9 10 1013.7 - -
02/08:30am 13.9 10.5 7.6 66 3.1 NNE 15 19 8 10 1013.8 - -
02/08:20am 13.4 9.9 7.4 67 2.9 NNE 15 20 8 11 1014.0 - -
02/08:10am 13.2 9.7 7.4 68 2.8 NNE 15 19 8 10 1014.1 - -
02/08:00am 13.4 9.6 7.6 68 2.8 N 17 20 9 11 1014.3 - -
02/07:50am 13.4 10.0 7.5 67 2.9 N 15 19 8 10 1014.3 - -
02/07:30am 13.2 9.8 7.5 68 2.8 N 15 19 8 10 1014.3 - -
02/07:20am 13.2 9.7 7.4 68 2.8 N 15 20 8 11 1014.3 - -
02/07:10am 13.2 10.1 7.2 67 2.9 N 13 15 7 8 1014.3 - -
02/07:00am 13.5 10.5 7.6 67 2.9 NNE 13 15 7 8 1014.3 - -
02/06:50am 13.4 10.4 7.8 69 2.8 N 13 17 7 9 1014.2 - -
02/06:40am 13.1 10.1 7.8 70 2.6 N 13 17 7 9 1014.2 - -
02/06:30am 12.9 9.9 7.8 71 2.5 N 13 15 7 8 1014.1 - -
02/06:20am 12.6 10.0 7.6 71 2.4 N 11 15 6 8 1014.1 - -
02/06:10am 12.5 9.8 7.5 71 2.4 N 11 15 6 8 1014.2 - -
02/06:00am 12.2 9.5 7.4 72 2.3 N 11 15 6 8 1014.2 - -
02/05:50am 12.2 9.9 7.4 72 2.3 N 9 13 5 7 1014.3 - -
02/05:40am 12.2 9.9 7.4 72 2.3 N 9 13 5 7 1014.2 - -
02/05:30am 11.9 9.5 7.2 73 2.3 N 9 13 5 7 1014.1 - -
02/05:20am 11.5 9.1 6.8 73 2.2 N 9 11 5 6 1014.0 - -
02/05:10am 11.7 9.3 7.0 73 2.2 N 9 13 5 7 1014.1 - -
02/05:00am 11.7 9.7 6.9 72 2.3 N 7 13 4 7 1014.1 - -
02/04:50am 11.6 9.5 6.8 72 2.3 N 7 11 4 6 1014.1 - -
02/04:40am 11.6 9.2 6.8 72 2.3 N 9 11 5 6 1014.1 - -
02/04:30am 11.6 9.1 6.6 71 2.4 N 9 11 5 6 1014.1 - -
02/04:20am 11.7 9.6 6.6 71 2.4 N 7 13 4 7 1014.1 - -
02/04:10am 11.6 9.4 6.3 70 2.5 N 7 11 4 6 1014.0 - -
02/04:00am 11.6 9.4 6.1 69 2.6 N 7 11 4 6 1014.1 - -
02/03:50am 11.5 9.3 6.0 69 2.6 N 7 9 4 5 1014.0 - -
02/03:40am 11.5 9.2 5.8 68 2.7 N 7 11 4 6 1014.0 - -
02/03:30am 11.5 8.8 5.6 67 2.7 N 9 13 5 7 1014.0 - -
02/03:20am 11.6 8.9 5.7 67 2.7 NNE 9 13 5 7 1013.9 - -
02/03:10am 11.6 9.3 5.7 67 2.7 N 7 11 4 6 1013.9 - -
02/03:00am 11.7 9.4 5.8 67 2.8 N 7 11 4 6 1014.0 - -
02/02:50am 11.6 9.3 5.9 68 2.7 NNE 7 11 4 6 1014.0 - -
02/02:40am 11.4 9.1 5.7 68 2.6 N 7 13 4 7 1014.1 - -
02/02:30am 11.4 9.1 5.7 68 2.6 N 7 11 4 6 1014.0 - -
02/02:20am 11.4 8.7 5.7 68 2.6 N 9 13 5 7 1014.1 - -
02/02:10am 11.3 9.1 5.5 67 2.7 N 6 9 3 5 1014.1 - -
02/02:00am 11.2 9.0 5.4 67 2.7 N 6 9 3 5 1014.2 - -
02/01:50am 11.3 9.1 5.3 66 2.8 N 6 9 3 5 1014.3 - -
02/01:40am 11.3 9.1 5.2 66 2.8 N 6 9 3 5 1014.3 - -
02/01:30am 11.2 9.0 5.2 66 2.7 N 6 9 3 5 1014.4 - -
02/01:20am 11.2 9.0 5.2 66 2.7 N 6 9 3 5 1014.4 - -
02/01:10am 11.1 8.8 5.0 66 2.8 N 6 9 3 5 1014.6 - -
02/01:00am 11.0 9.1 4.9 66 2.8 N 4 7 2 4 1014.7 - -
02/12:50am 10.9 9.4 4.8 66 2.8 N 2 6 1 3 1014.8 - -
02/12:40am 10.8 9.2 4.7 66 2.8 NNW 2 4 1 2 1014.8 - -
02/12:30am 10.8 9.2 4.6 65 2.8 N 2 6 1 3 1014.9 - -
02/12:20am 10.8 9.6 4.7 66 2.8 CALM 0 0 0 0 1014.9 - -
02/12:10am 10.7 9.5 4.5 65 2.8 CALM 0 2 0 1 1015.0 - -
02/12:00am 10.7 9.5 4.4 65 2.8 CALM 0 0 0 0 1015.1 - -
 
Date/Time
EST
Temp
°C
App
Temp
°C
Dew
Point
Rel
Hum
%
Delta-T
°C
Wind Press
QNH
hPa
Press
MSL
hPa
Rain
since 9 am
mm
Dir
 
Spd
km/h
Gust
km/h
Spd
kts
Gust
kts
01/11:50pm 10.7 9.5 4.4 65 2.8 CALM 0 0 0 0 1015.2 - -
01/11:40pm 10.6 9.4 4.4 65 2.8 CALM 0 2 0 1 1015.2 - -
01/11:30pm 10.6 9.3 4.3 65 2.8 CALM 0 0 0 0 1015.3 - -
01/11:20pm 10.6 9.4 4.4 65 2.8 CALM 0 2 0 1 1015.3 - -
01/11:10pm 10.7 9.5 4.4 65 2.8 CALM 0 2 0 1 1015.4 - -
01/11:00pm 10.6 9.4 4.4 65 2.8 CALM 0 2 0 1 1015.5 - -
01/10:50pm 10.4 9.2 4.4 66 2.7 CALM 0 2 0 1 1015.6 - -
01/10:40pm 10.2 8.9 4.2 66 2.7 CALM 0 0 0 0 1015.6 - -
01/10:30pm 10.2 8.9 4.1 66 2.7 CALM 0 0 0 0 1015.6 - -
01/10:20pm 10.2 8.9 4.1 66 2.7 CALM 0 0 0 0 1015.7 - -
01/10:10pm 10.3 9.0 4.2 66 2.7 CALM 0 0 0 0 1015.7 - -
01/10:00pm 10.4 9.1 4.2 65 2.8 CALM 0 0 0 0 1015.7 - -
01/09:50pm 10.6 9.4 4.4 65 2.8 CALM 0 0 0 0 1015.7 - -
01/09:40pm 10.3 9.0 4.1 65 2.8 CALM 0 0 0 0 1015.8 - -
01/09:30pm 10.4 9.1 4.1 65 2.8 CALM 0 0 0 0 1015.9 - -
01/09:20pm 10.5 9.2 4.1 64 2.8 CALM 0 0 0 0 1015.8 - -
01/09:10pm 10.5 9.2 4.2 65 2.8 CALM 0 0 0 0 1015.7 - -
01/09:00pm 10.7 9.5 4.4 65 2.8 CALM 0 0 0 0 1015.7 - -
01/08:50pm 10.7 9.5 4.4 65 2.8 CALM 0 0 0 0 1015.7 - -
01/08:40pm 10.4 9.1 4.2 65 2.8 CALM 0 0 0 0 1015.6 - -
01/08:30pm 10.5 9.2 4.2 65 2.8 CALM 0 0 0 0 1015.5 - -
01/08:20pm 10.6 9.3 4.2 64 2.9 CALM 0 0 0 0 1015.4 - -
01/08:10pm 10.5 9.2 4.2 65 2.8 CALM 0 0 0 0 1015.4 - -
01/08:00pm 10.4 9.1 4.1 65 2.8 CALM 0 0 0 0 1015.3 - -
01/07:50pm 10.4 9.1 4.1 65 2.8 CALM 0 0 0 0 1015.3 - -
01/07:40pm 10.4 9.1 4.0 64 2.8 CALM 0 0 0 0 1015.3 - -
01/07:30pm 10.5 9.2 4.2 65 2.8 CALM 0 0 0 0 1015.1 - -
01/07:20pm 10.3 9.0 4.1 65 2.8 CALM 0 0 0 0 1014.9 - -
01/07:10pm 10.3 9.0 3.9 64 2.8 CALM 0 0 0 0 1014.7 - -
01/07:00pm 10.4 9.1 4.0 64 2.8 CALM 0 0 0 0 1014.7 - -
01/06:50pm 10.4 9.1 4.0 64 2.8 CALM 0 0 0 0 1014.7 - -
01/06:40pm 10.3 8.9 3.8 64 2.9 CALM 0 0 0 0 1014.7 - -
01/06:30pm 10.4 9.0 3.8 63 2.9 CALM 0 0 0 0 1014.9 - -
01/06:20pm 10.6 9.3 4.0 63 2.9 CALM 0 2 0 1 1015.0 - -
01/06:10pm 10.6 9.3 4.0 63 2.9 CALM 0 4 0 2 1015.0 - -
01/06:00pm 10.6 9.3 3.9 63 3.0 CALM 0 2 0 1 1015.0 - -
01/05:50pm 10.6 9.2 3.8 63 3.0 CALM 0 4 0 2 1014.7 - -
01/05:40pm 10.6 8.5 3.8 63 3.0 SSE 4 9 2 5 1014.5 - -
01/05:20pm 10.6 8.5 3.8 63 3.0 S 4 7 2 4 1014.4 - -
01/05:10pm 10.7 8.6 3.8 62 3.1 S 4 7 2 4 1014.4 - -
01/05:00pm 10.6 8.5 3.7 62 3.0 S 4 9 2 5 1014.4 - -
01/04:50pm 10.7 8.2 3.7 62 3.1 S 6 7 3 4 1014.3 - -
01/04:40pm 10.7 8.5 3.4 60 3.2 S 4 11 2 6 1014.3 - -
01/04:30pm 10.7 8.5 3.4 60 3.2 S 4 7 2 4 1014.3 - -
01/04:20pm 10.8 8.6 3.5 60 3.2 S 4 7 2 4 1014.2 - -
01/04:10pm 11.0 8.3 3.6 60 3.3 SSW 7 11 4 6 1014.2 - -
01/04:00pm 11.2 9.0 3.6 59 3.4 SSW 4 7 2 4 1014.1 - -
01/03:50pm 11.4 9.2 3.4 58 3.5 SSW 4 7 2 4 1014.1 - -
01/03:40pm 11.5 9.0 3.5 58 3.5 SSW 6 9 3 5 1014.2 - -
01/03:30pm 11.5 8.4 3.4 57 3.6 SSW 9 15 5 8 1014.2 - -
01/03:20pm 12.1 9.4 3.8 57 3.7 SSW 7 15 4 8 1014.2 - -
01/03:10pm 12.2 8.8 4.0 57 3.7 SSW 11 15 6 8 1014.3 - -
01/03:00pm 12.2 8.9 4.3 58 3.6 SSW 11 17 6 9 1014.3 - -
01/02:50pm 12.4 9.1 4.8 60 3.5 SW 11 19 6 10 1014.4 - -
01/02:40pm 12.5 8.5 4.8 59 3.5 SW 15 19 8 10 1014.5 - -
01/02:30pm 12.4 9.1 4.7 59 3.5 SW 11 17 6 9 1014.6 - -
01/02:20pm 12.4 8.7 4.7 59 3.5 SSW 13 19 7 10 1014.8 - -
01/02:10pm 12.4 9.8 4.4 58 3.6 SW 7 13 4 7 1014.7 - -
01/02:00pm 12.3 9.4 4.4 58 3.6 SW 9 15 5 8 1014.8 - -
01/01:50pm 12.6 9.4 4.9 59 3.5 SW 11 19 6 10 1014.7 - -
01/01:40pm 12.5 8.9 4.9 60 3.5 SW 13 19 7 10 1014.6 - -
01/01:30pm 12.4 8.8 4.8 60 3.5 SW 13 19 7 10 1014.6 - -
01/01:20pm 12.3 8.5 4.0 57 3.7 SW 13 20 7 11 1014.6 - -
01/01:10pm 12.3 8.8 3.3 54 4.0 SW 11 17 6 9 1014.6 - -
01/01:00pm 12.5 8.6 3.4 54 4.1 SW 13 19 7 10 1014.5 - -
01/12:50pm 12.7 8.9 3.7 54 4.0 SW 13 17 7 9 1014.5 - -
01/12:40pm 12.8 9.0 3.8 54 4.1 SW 13 17 7 9 1014.6 - -
01/12:30pm 12.8 9.3 3.7 54 4.1 SW 11 17 6 9 1014.7 - -
01/12:20pm 12.9 9.5 3.9 54 4.1 SW 11 17 6 9 1014.7 - -
01/12:10pm 13.3 9.9 3.8 52 4.3 SW 11 15 6 8 1014.8 - -
01/12:00pm 13.2 9.8 3.9 53 4.2 SW 11 15 6 8 1014.9 - -
01/11:50am 13.1 9.3 4.0 54 4.1 SW 13 19 7 10 1014.9 - -
01/11:40am 13.1 9.3 4.1 54 4.1 SW 13 20 7 11 1015.0 - -
01/11:30am 13.0 9.2 4.1 54 4.0 SW 13 19 7 10 1015.1 - -
01/11:20am 13.0 8.9 4.4 56 3.9 WSW 15 20 8 11 1015.2 - -
01/11:10am 12.9 9.2 4.3 56 3.9 SW 13 19 7 10 1015.4 - -
01/11:00am 13.2 9.5 4.5 55 4.0 SW 13 19 7 10 1015.5 - -
01/10:50am 13.2 9.6 4.8 56 3.9 SW 13 19 7 10 1015.6 - -
01/10:40am 13.2 9.5 4.7 56 3.9 WSW 13 19 7 10 1015.7 - -
01/10:30am 13.5 10.2 4.8 55 4.0 SW 11 17 6 9 1015.7 - -
01/10:20am 13.7 10.5 4.9 55 4.1 SW 11 15 6 8 1015.8 - -
01/10:10am 13.9 10.7 5.0 55 4.2 SW 11 17 6 9 1015.8 - -
01/10:00am 13.9 10.7 5.1 55 4.1 SW 11 17 6 9 1015.7 - -
01/09:50am 13.9 10.7 5.3 56 4.0 SW 11 17 6 9 1015.7 - -
01/09:40am 13.7 10.1 5.2 56 4.0 SW 13 19 7 10 1015.6 - -
01/09:30am 13.7 10.1 5.2 56 4.0 SW 13 17 7 9 1015.6 - -
01/09:20am 13.6 10.1 5.4 57 3.8 SW 13 17 7 9 1015.7 - -
01/09:10am 13.4 9.5 5.4 58 3.7 SW 15 19 8 10 1015.7 - -
01/09:00am 13.1 8.9 5.5 60 3.6 SW 17 20 9 11 1015.8 - -
01/08:50am 12.8 8.6 5.5 61 3.4 SW 17 22 9 12 1015.7 - -
01/08:40am 12.8 8.6 5.7 62 3.3 SW 17 20 9 11 1015.8 - -
01/08:30am 12.6 8.4 5.6 62 3.3 SW 17 22 9 12 1015.8 - -
01/08:20am 12.4 8.6 5.9 64 3.1 SW 15 20 8 11 1015.9 - -
01/08:10am 12.1 7.9 5.8 65 2.9 WSW 17 20 9 11 1015.9 - -
01/08:00am 12.0 8.2 5.7 65 2.9 WSW 15 20 8 11 1015.9 - -
01/07:50am 11.9 8.1 5.6 65 2.9 SW 15 20 8 11 1016.0 - -
01/07:40am 11.9 8.1 5.7 66 2.9 WSW 15 20 8 11 1016.0 - -
01/07:30am 11.9 7.7 5.8 66 2.8 WSW 17 20 9 11 1016.0 - -
01/07:20am 11.9 7.2 5.9 66 2.8 SW 20 24 11 13 1015.9 - -
01/07:10am 11.8 7.3 5.9 67 2.8 SW 19 24 10 13 1015.8 - -
01/07:00am 11.6 6.9 5.9 68 2.7 SW 20 26 11 14 1015.7 - -
01/06:50am 11.5 6.7 5.8 68 2.7 SW 20 26 11 14 1015.7 - -
01/06:40am 11.4 6.7 5.9 69 2.6 SW 20 26 11 14 1015.7 - -
01/06:30am 11.3 7.1 5.8 69 2.6 SW 17 22 9 12 1015.6 - -
01/06:20am 11.2 7.0 5.7 69 2.5 SW 17 20 9 11 1015.5 - -
01/06:10am 11.1 6.5 5.6 69 2.5 SW 19 22 10 12 1015.5 - -
01/06:00am 11.1 6.5 5.6 69 2.5 SW 19 26 10 14 1015.5 - -
01/05:50am 11.1 6.5 5.5 68 2.6 SW 19 24 10 13 1015.5 - -
01/05:40am 11.0 6.2 5.4 68 2.6 SW 20 24 11 13 1015.4 - -
01/05:30am 11.0 6.2 5.4 68 2.6 SW 20 24 11 13 1015.5 - -
01/05:20am 11.0 6.2 5.4 68 2.6 SW 20 26 11 14 1015.4 - -
01/05:10am 11.0 6.1 5.3 68 2.6 SW 20 28 11 15 1015.2 - -
01/05:00am 11.1 6.2 5.3 67 2.7 SW 20 26 11 14 1015.3 - -
01/04:50am 11.2 6.3 5.3 67 2.7 SW 20 28 11 15 1015.4 - -
01/04:40am 11.1 5.9 5.4 68 2.6 SW 22 28 12 15 1015.4 - -
01/04:30am 11.0 5.7 5.2 67 2.7 SW 22 30 12 16 1015.3 - -
01/04:20am 11.0 5.7 5.0 66 2.7 SW 22 26 12 14 1015.3 - -
01/04:10am 11.0 5.7 5.0 66 2.7 SW 22 30 12 16 1015.3 - -
01/04:00am 10.9 6.0 5.0 67 2.7 SW 20 28 11 15 1015.5 - -
01/03:50am 10.9 5.6 5.0 67 2.7 SW 22 32 12 17 1015.4 - -
01/03:40am 10.8 5.4 4.7 66 2.8 SW 22 28 12 15 1015.3 - -
01/03:30am 10.8 5.4 4.6 65 2.8 SW 22 28 12 15 1015.4 - -
01/03:20am 10.7 4.9 4.5 65 2.8 SW 24 30 13 16 1015.2 - -
01/03:10am 10.7 4.9 4.6 66 2.7 SW 24 32 13 17 1015.5 - -
01/03:00am 10.8 5.1 4.7 66 2.8 SW 24 28 13 15 1015.4 - -
01/02:50am 10.8 5.0 4.5 65 2.8 SW 24 30 13 16 1015.3 - -
01/02:40am 10.8 5.4 4.7 66 2.8 SW 22 28 12 15 1015.4 - -
01/02:30am 10.8 5.1 4.9 67 2.7 SSW 24 30 13 16 1015.6 - -
01/02:20am 10.8 5.5 4.8 66 2.7 SSW 22 30 12 16 1015.6 - -
01/02:10am 10.7 5.4 5.0 68 2.6 SW 22 30 12 16 1015.6 - -
01/02:00am 10.8 5.5 5.2 68 2.6 SW 22 28 12 15 1015.6 - -
01/01:40am 10.8 5.5 5.1 68 2.6 SSW 22 30 12 16 1016.0 - -
01/01:30am 10.9 5.6 5.2 68 2.6 SSW 22 30 12 16 1016.0 - -
01/01:20am 10.9 5.3 5.3 68 2.6 SSW 24 28 13 15 1016.1 - -
01/01:10am 10.9 5.7 5.4 69 2.5 SSW 22 28 12 15 1016.2 - -
01/01:00am 11.0 5.8 5.6 69 2.5 SSW 22 28 12 15 1016.4 - -
01/12:50am 11.0 5.4 5.6 69 2.5 SSW 24 28 13 15 1016.5 - -
01/12:40am 11.1 5.9 5.5 68 2.6 SSW 22 28 12 15 1016.5 - -
01/12:30am 11.1 5.5 5.4 68 2.6 SSW 24 32 13 17 1016.5 - -
01/12:20am 11.1 5.5 5.5 68 2.6 SSW 24 33 13 18 1016.6 - -
01/12:10am 11.1 5.5 5.5 68 2.6 SSW 24 30 13 16 1016.6 - -
01/12:00am 11.0 5.4 5.6 69 2.5 SSW 24 30 13 16 1016.6 - -
 
Date/Time
EST
Temp
°C
App
Temp
°C
Dew
Point
Rel
Hum
%
Delta-T
°C
Wind Press
QNH
hPa
Press
MSL
hPa
Rain
since 9 am
mm
Dir
 
Spd
km/h
Gust
km/h
Spd
kts
Gust
kts
31/11:50pm 11.0 5.5 5.7 70 2.5 SSW 24 30 13 16 1016.6 - -
31/11:40pm 11.0 5.5 5.9 71 2.4 SSW 24 33 13 18 1016.7 - -
31/11:30pm 11.1 5.6 6.0 71 2.4 SSW 24 32 13 17 1016.8 - -
31/11:20pm 11.2 6.1 6.0 70 2.4 SW 22 28 12 15 1016.6 - -
31/11:10pm 11.3 5.8 6.0 70 2.5 SW 24 32 13 17 1016.7 - -
31/11:00pm 11.2 5.7 5.7 69 2.5 SSW 24 28 13 15 1016.8 - -
31/10:50pm 11.4 5.8 5.4 66 2.8 SSW 24 30 13 16 1017.0 - -
31/10:40pm 11.4 6.1 4.8 64 3.0 SW 22 26 12 14 1016.7 - -
31/10:30pm 11.4 5.6 4.5 62 3.1 SSW 24 30 13 16 1017.0 - -
31/10:20pm 11.4 5.6 4.6 63 3.1 SSW 24 30 13 16 1017.0 - -
31/10:10pm 11.4 6.1 4.8 64 3.0 SSW 22 28 12 15 1017.1 - -
31/10:00pm 11.3 6.0 5.0 65 2.9 SSW 22 26 12 14 1017.2 - -
31/09:50pm 11.3 6.0 5.1 65 2.8 SW 22 28 12 15 1017.0 - -
31/09:40pm 11.3 6.0 5.2 66 2.8 SW 22 26 12 14 1017.3 - -
31/09:30pm 11.2 6.0 5.3 67 2.7 SW 22 28 12 15 1017.2 - -
31/09:20pm 11.3 5.7 5.5 67 2.7 SW 24 30 13 16 1017.3 - -
31/09:10pm 11.3 6.1 5.7 68 2.6 SW 22 28 12 15 1017.3 - -
31/09:00pm 11.3 5.8 5.8 69 2.6 SSW 24 28 13 15 1017.5 - -
31/08:50pm 11.3 6.2 5.8 69 2.6 SW 22 28 12 15 1017.4 - -
31/08:40pm 11.2 5.7 5.8 69 2.5 SW 24 30 13 16 1017.4 - -
31/08:30pm 11.3 5.8 5.9 69 2.5 SSW 24 28 13 15 1017.6 - -
31/08:20pm 11.4 6.3 5.8 68 2.6 SSW 22 28 12 15 1017.5 - -
31/08:10pm 11.4 5.9 5.7 68 2.6 SSW 24 30 13 16 1017.6 - -
31/08:00pm 11.4 6.2 5.3 66 2.8 SW 22 30 12 16 1017.5 - -
31/07:50pm 11.4 6.5 5.2 65 2.8 SW 20 26 11 14 1017.4 - -
31/07:40pm 11.3 6.4 5.0 65 2.9 SSW 20 26 11 14 1017.6 - -
31/07:30pm 11.2 6.3 5.0 65 2.8 SW 20 26 11 14 1017.4 - -
31/07:20pm 11.3 6.4 5.0 65 2.9 SW 20 24 11 13 1017.5 - -
31/07:10pm 11.2 5.9 5.0 65 2.8 SSW 22 26 12 14 1017.5 - -
31/07:00pm 11.3 6.4 5.2 66 2.8 SSW 20 26 11 14 1017.6 - -
31/06:50pm 11.3 6.4 5.2 66 2.8 SSW 20 24 11 13 1017.7 - -
31/06:40pm 11.3 6.7 5.6 68 2.6 SSW 19 24 10 13 1017.6 - -
31/06:30pm 11.3 6.7 5.6 68 2.6 SSW 19 24 10 13 1017.5 - -
31/06:20pm 11.3 6.7 5.6 68 2.6 SSW 19 24 10 13 1017.5 - -
31/06:10pm 11.2 6.6 5.6 68 2.6 SSW 19 24 10 13 1017.5 - -
31/06:00pm 11.3 6.6 5.9 69 2.5 SSW 20 26 11 14 1017.5 - -
31/05:50pm 11.3 6.6 6.1 70 2.4 SSW 20 26 11 14 1017.4 - -
31/05:40pm 11.2 6.5 6.0 70 2.4 SSW 20 26 11 14 1017.4 - -
31/05:30pm 11.2 6.6 6.3 72 2.3 SSW 20 26 11 14 1017.5 - -
31/05:20pm 11.2 6.6 6.3 72 2.3 SSW 20 26 11 14 1017.4 - -
31/05:10pm 11.2 6.6 6.3 72 2.3 SSW 20 26 11 14 1017.5 - -
31/05:00pm 11.2 6.2 6.3 72 2.3 SSW 22 26 12 14 1017.5 - -
31/04:50pm 11.3 6.2 6.2 71 2.4 SSW 22 28 12 15 1017.5 - -
31/04:40pm 11.2 6.5 6.2 71 2.3 SSW 20 26 11 14 1017.6 - -
31/04:30pm 11.2 6.5 6.1 71 2.4 SSW 20 26 11 14 1017.5 - -
31/04:20pm 11.3 6.6 6.2 71 2.4 SSW 20 28 11 15 1017.5 - -
31/04:10pm 11.3 6.2 6.1 70 2.4 SSW 22 28 12 15 1017.6 - -
31/04:00pm 11.3 5.8 6.1 70 2.4 SSW 24 30 13 16 1017.5 - -
31/03:50pm 11.3 6.2 6.0 70 2.5 SSW 22 28 12 15 1017.4 - -
31/03:40pm 11.3 6.2 5.9 69 2.5 SSW 22 30 12 16 1017.3 - -
31/03:30pm 11.3 6.2 5.9 69 2.5 SSW 22 28 12 15 1017.3 - -
31/03:20pm 11.2 6.1 5.9 70 2.5 SSW 22 26 12 14 1017.3 - -
31/03:10pm 11.2 6.1 6.0 70 2.4 SSW 22 26 12 14 1017.4 - -
31/03:00pm 11.2 6.5 5.9 70 2.5 SSW 20 26 11 14 1017.5 - -
31/02:50pm 11.3 6.2 5.9 69 2.5 SSW 22 26 12 14 1017.5 - -
31/02:40pm 11.3 6.2 5.8 69 2.6 SSW 22 26 12 14 1017.6 - -
31/02:30pm 11.4 6.3 5.9 69 2.6 SSW 22 26 12 14 1017.6 - -
31/02:20pm 11.4 6.7 6.0 69 2.5 SSW 20 26 11 14 1017.6 - -
31/02:10pm 11.4 6.3 5.9 69 2.6 SSW 22 24 12 13 1017.6 - -
31/02:00pm 11.4 6.6 5.7 68 2.6 SSW 20 26 11 14 1017.7 - -
31/01:50pm 11.4 6.6 5.8 68 2.6 SSW 20 26 11 14 1017.7 - -
31/01:40pm 11.5 6.8 5.9 68 2.6 SSW 20 26 11 14 1017.8 - -
31/01:30pm 11.2 6.4 5.6 68 2.6 SSW 20 32 11 17 1017.8 - -
31/01:20pm 11.2 6.1 5.8 69 2.5 SSW 22 30 12 16 1017.8 - -
31/01:10pm 11.2 6.7 6.0 70 2.4 SSW 19 24 10 13 1017.7 - -
31/01:00pm 11.1 6.9 5.9 70 2.4 S 17 22 9 12 1017.7 - -
31/12:50pm 11.1 6.9 5.9 70 2.4 SSW 17 22 9 12 1017.8 - -
31/12:40pm 11.0 6.5 6.0 71 2.3 S 19 22 10 12 1017.9 - -
31/12:30pm 11.1 6.6 6.3 72 2.3 S 19 24 10 13 1018.0 - -
31/12:20pm 11.0 6.5 6.3 73 2.2 S 19 24 10 13 1018.1 - -
31/12:10pm 11.0 6.5 6.3 73 2.2 S 19 24 10 13 1018.1 - -
31/12:00pm 10.9 6.4 6.2 73 2.2 S 19 22 10 12 1018.2 - -
31/11:50am 10.9 6.2 6.1 72 2.2 S 20 24 11 13 1018.2 - -
31/11:40am 11.0 6.3 6.1 72 2.3 S 20 24 11 13 1018.3 - -
31/11:30am 11.0 6.3 6.0 71 2.3 S 20 24 11 13 1018.4 - -
31/11:20am 11.0 6.5 5.9 71 2.4 S 19 24 10 13 1018.5 - -
31/11:10am 11.2 6.7 6.0 70 2.4 S 19 22 10 12 1018.6 - -
31/11:00am 11.2 7.1 6.0 70 2.4 S 17 24 9 13 1018.7 - -
31/10:50am 11.2 6.7 6.0 70 2.4 S 19 22 10 12 1018.9 - -
31/10:30am 11.2 6.7 6.1 71 2.4 S 19 30 10 16 1019.0 - -
31/10:20am 11.1 6.6 6.0 71 2.4 S 19 24 10 13 1019.1 - -
31/10:10am 11.2 7.1 6.0 70 2.4 S 17 22 9 12 1019.2 - -
31/10:00am 11.3 6.8 5.9 69 2.5 S 19 24 10 13 1019.3 - -
31/09:50am 11.2 7.0 5.8 69 2.5 S 17 24 9 13 1019.2 - -
31/09:40am 11.2 7.0 5.9 70 2.5 S 17 24 9 13 1019.2 - -
31/09:30am 11.3 7.2 6.1 70 2.4 S 17 22 9 12 1019.2 - -
31/09:20am 11.3 6.8 6.1 70 2.4 SSW 19 24 10 13 1019.2 - -
31/09:10am 11.3 7.2 6.1 70 2.4 S 17 20 9 11 1019.2 - -
31/09:00am 11.2 6.7 6.1 71 2.4 S 19 20 10 11 1019.2 - -
31/08:50am 11.1 6.6 6.1 71 2.3 S 19 22 10 12 1019.4 - -
31/08:40am 11.2 7.2 6.6 73 2.2 SSW 17 20 9 11 1019.5 - -
31/08:30am 11.0 7.1 7.0 76 1.9 SSW 17 22 9 12 1019.5 - -
31/08:20am 10.9 7.0 7.1 77 1.8 SSW 17 20 9 11 1019.4 - -
31/08:10am 10.7 7.6 7.2 79 1.7 SSW 13 20 7 11 1019.4 - -
31/08:00am 10.5 6.6 7.1 79 1.6 SSW 17 19 9 10 1019.5 - -
31/07:50am 10.4 6.1 6.9 79 1.7 SSW 19 24 10 13 1019.7 - -
31/07:40am 10.4 6.1 7.0 79 1.6 SSW 19 26 10 14 1019.7 - -
31/07:30am 10.5 6.6 7.1 79 1.6 SSW 17 28 9 15 1019.7 - -
31/07:20am 10.4 6.5 7.1 80 1.6 SSW 17 26 9 14 1019.6 - -
31/07:10am 10.5 6.2 7.0 79 1.7 SW 19 26 10 14 1019.5 - -
31/07:00am 10.6 6.1 6.8 77 1.8 SW 20 26 11 14 1019.5 - -
31/06:50am 10.5 6.1 6.6 77 1.8 SW 19 26 10 14 1019.5 - -
31/06:40am 10.4 6.3 6.4 76 1.9 SW 17 22 9 12 1019.4 - -
31/06:30am 10.4 5.7 6.2 75 2.0 SSW 20 24 11 13 1019.5 - -
31/06:20am 10.5 6.0 6.1 74 2.0 SSW 19 26 10 14 1019.3 - -
31/06:10am 10.5 6.4 6.2 75 2.0 SSW 17 26 9 14 1019.3 - -
31/06:00am 10.4 6.3 6.2 75 2.0 SSW 17 22 9 12 1019.2 - -
31/05:50am 10.4 6.3 6.1 75 2.0 SW 17 22 9 12 1019.1 - -
31/05:40am 10.3 5.6 6.0 75 2.0 SSW 20 24 11 13 1019.1 - -
31/05:30am 10.3 5.6 5.9 74 2.0 SSW 20 24 11 13 1019.2 - -
31/05:20am 10.1 5.3 5.8 74 2.0 SSW 20 26 11 14 1019.2 - -
31/05:10am 10.4 4.9 5.7 72 2.2 SSW 24 30 13 16 1019.1 - -
31/05:00am 10.6 5.8 5.7 72 2.3 SSW 20 28 11 15 1019.0 - -
31/04:50am 10.7 5.5 5.7 71 2.3 SSW 22 30 12 16 1018.8 - -
31/04:40am 10.8 5.6 5.7 71 2.4 SW 22 28 12 15 1018.8 - -
31/04:30am 10.8 5.6 5.7 71 2.4 SW 22 30 12 16 1018.7 - -
31/04:20am 10.8 5.3 5.7 71 2.4 SW 24 28 13 15 1018.6 - -
31/04:10am 10.9 5.4 5.8 71 2.4 SW 24 28 13 15 1018.7 - -
31/04:00am 10.9 5.4 5.7 70 2.4 SW 24 30 13 16 1018.7 - -
31/03:50am 10.9 5.4 5.8 71 2.4 SW 24 30 13 16 1018.9 - -
31/03:40am 10.9 5.4 5.7 70 2.4 SW 24 28 13 15 1018.9 - -
31/03:30am 10.9 5.4 5.7 70 2.4 SW 24 28 13 15 1019.0 - -
31/03:20am 11.0 5.8 5.7 70 2.5 SSW 22 26 12 14 1019.1 - -
31/03:10am 11.0 5.8 5.6 69 2.5 SW 22 28 12 15 1018.9 - -
31/03:00am 11.1 5.9 5.5 68 2.6 SSW 22 28 12 15 1019.1 - -
31/02:50am 11.1 6.3 5.4 68 2.6 SW 20 24 11 13 1019.1 - -
31/02:40am 11.1 6.4 5.3 67 2.7 SSW 19 26 10 14 1019.2 - -
31/02:30am 11.0 6.3 5.1 67 2.7 SW 19 26 10 14 1019.1 - -
31/02:20am 11.0 6.1 5.1 67 2.7 SW 20 26 11 14 1019.2 - -
31/02:10am 10.9 6.2 5.1 67 2.6 SW 19 24 10 13 1019.2 - -
31/02:00am 10.9 6.0 5.0 67 2.7 SW 20 26 11 14 1019.2 - -
31/01:50am 10.9 6.0 5.0 67 2.7 SW 20 24 11 13 1019.2 - -
31/01:40am 10.9 6.0 4.9 66 2.7 SSW 20 24 11 13 1019.5 - -
31/01:30am 10.8 5.5 4.9 67 2.7 SW 22 26 12 14 1019.6 - -
31/01:20am 10.9 5.6 5.0 67 2.7 SW 22 28 12 15 1019.8 - -
31/01:10am 10.9 6.0 5.0 67 2.7 SW 20 24 11 13 1019.8 - -
31/01:00am 10.9 6.0 4.9 66 2.7 SW 20 24 11 13 1019.9 - -
31/12:50am 10.8 5.9 4.9 67 2.7 SW 20 26 11 14 1020.0 - -
31/12:40am 10.8 5.5 4.8 66 2.7 SW 22 26 12 14 1020.0 - -
31/12:30am 10.8 5.4 4.7 66 2.8 SW 22 28 12 15 1020.0 - -
31/12:20am 10.8 5.8 4.6 65 2.8 SW 20 28 11 15 1020.2 - -
31/12:10am 10.7 5.6 4.1 63 2.9 SW 20 24 11 13 1020.3 - -
31/12:00am 10.6 5.5 4.0 63 2.9 SW 20 24 11 13 1020.3 - -
 
Date/Time
EST
Temp
°C
App
Temp
°C
Dew
Point
Rel
Hum
%
Delta-T
°C
Wind Press
QNH
hPa
Press
MSL
hPa
Rain
since 9 am
mm
Dir
 
Spd
km/h
Gust
km/h
Spd
kts
Gust
kts
30/11:50pm 10.6 5.1 3.8 63 3.0 SW 22 28 12 15 1020.2 - -
30/11:40pm 10.6 5.1 3.9 63 3.0 SW 22 30 12 16 1020.3 - -
30/11:30pm 10.7 5.2 3.8 62 3.1 SW 22 26 12 14 1020.5 - -
30/11:20pm 10.8 5.3 3.8 62 3.1 SW 22 28 12 15 1020.7 - -
30/11:10pm 10.7 5.2 3.8 62 3.1 SW 22 28 12 15 1020.7 - -
30/11:00pm 10.6 5.1 3.8 63 3.0 SW 22 26 12 14 1020.7 - -
30/10:50pm 10.6 5.0 3.7 62 3.0 SW 22 28 12 15 1020.8 - -
30/10:40pm 10.5 5.0 4.1 64 2.8 SW 22 26 12 14 1020.9 - -
30/10:30pm 10.6 5.2 4.6 66 2.7 SW 22 26 12 14 1021.1 - -
30/10:20pm 10.7 5.4 4.9 67 2.6 SW 22 26 12 14 1021.2 - -
30/10:10pm 10.7 5.8 4.9 67 2.6 SSW 20 26 11 14 1021.5 - -
30/10:00pm 10.7 5.7 4.8 67 2.7 SSW 20 24 11 13 1021.5 - -
30/09:50pm 10.8 5.8 4.7 66 2.8 SSW 20 28 11 15 1021.5 - -
30/09:40pm 10.7 5.9 4.6 66 2.7 SSW 19 24 10 13 1021.7 - -
30/09:30pm 10.7 5.9 4.5 65 2.8 SSW 19 26 10 14 1021.8 - -
30/09:20pm 10.7 5.8 4.3 64 2.9 SSW 19 24 10 13 1021.8 - -
30/09:10pm 10.7 5.7 4.4 65 2.8 SSW 20 24 11 13 1021.9 - -
30/09:00pm 10.7 5.9 4.4 65 2.8 SSW 19 24 10 13 1022.0 - -
30/08:50pm 10.7 5.8 4.2 64 2.9 SSW 19 24 10 13 1022.0 - -
30/08:40pm 10.7 5.6 4.0 63 3.0 SSW 20 26 11 14 1021.9 - -
30/08:30pm 10.8 5.7 4.1 63 3.0 SSW 20 26 11 14 1022.1 - -
30/08:20pm 10.8 6.3 4.2 64 2.9 SSW 17 22 9 12 1022.1 - -
30/08:10pm 10.8 6.7 4.2 64 2.9 SSW 15 22 8 12 1022.0 - -
30/08:00pm 10.7 6.9 3.9 63 3.0 SW 13 19 7 10 1021.8 - -
30/07:50pm 10.7 6.9 3.9 63 3.0 SW 13 17 7 9 1021.9 - -
30/07:40pm 10.7 7.3 4.0 63 3.0 SSW 11 15 6 8 1022.0 - -
30/07:30pm 10.7 7.3 3.8 62 3.1 SSW 11 15 6 8 1022.1 - -
30/07:10pm 10.6 7.6 3.9 63 3.0 S 9 15 5 8 1022.1 - -
30/07:00pm 10.7 7.3 4.0 63 3.0 SSW 11 17 6 9 1022.1 - -
30/06:50pm 10.6 6.8 4.0 63 2.9 S 13 17 7 9 1022.2 - -
30/06:40pm 10.7 6.9 3.9 63 3.0 S 13 17 7 9 1022.1 - -
30/06:30pm 10.7 6.9 3.9 63 3.0 S 13 19 7 10 1022.2 - -
30/06:20pm 10.7 6.5 3.9 63 3.0 S 15 19 8 10 1022.1 - -
30/06:10pm 10.8 6.6 3.8 62 3.1 S 15 22 8 12 1022.1 - -
30/06:00pm 10.8 6.6 3.8 62 3.1 S 15 22 8 12 1022.0 - -
30/05:50pm 10.9 6.7 3.6 60 3.2 S 15 22 8 12 1022.1 - -
30/05:40pm 10.9 7.0 3.5 60 3.3 SSW 13 19 7 10 1022.1 - -
30/05:30pm 10.9 7.0 3.2 59 3.4 SSW 13 17 7 9 1022.0 - -
30/05:20pm 10.9 7.4 3.6 60 3.2 SSW 11 15 6 8 1021.8 - -
30/05:10pm 10.9 7.4 3.7 61 3.2 SSW 11 15 6 8 1021.6 - -
30/05:00pm 11.0 7.6 3.9 61 3.2 SW 11 17 6 9 1021.5 - -
30/04:50pm 11.1 8.1 3.9 61 3.2 SW 9 15 5 8 1021.4 - -
30/04:40pm 11.2 7.8 3.9 61 3.2 SW 11 15 6 8 1021.4 - -
30/04:30pm 11.1 8.0 3.4 59 3.4 SW 9 15 5 8 1021.3 - -
30/04:20pm 11.2 7.4 3.7 60 3.3 SW 13 19 7 10 1021.4 - -
30/04:10pm 11.0 6.8 3.9 61 3.2 SSW 15 20 8 11 1021.5 - -
30/04:00pm 11.0 6.9 4.3 63 3.0 SSW 15 20 8 11 1021.5 - -
30/03:50pm 10.9 6.4 4.0 62 3.1 SSW 17 22 9 12 1021.5 - -
30/03:40pm 10.9 6.7 3.7 61 3.2 SSW 15 19 8 10 1021.5 - -
30/03:30pm 10.8 6.5 3.4 60 3.2 SSW 15 19 8 10 1021.5 - -
30/03:20pm 10.7 6.0 2.9 58 3.4 SSW 17 22 9 12 1021.5 - -
30/03:10pm 10.6 5.9 3.0 59 3.3 SSW 17 22 9 12 1021.5 - -
30/03:00pm 10.7 5.7 3.7 62 3.1 SSW 19 24 10 13 1021.6 - -
30/02:50pm 10.8 5.9 3.9 62 3.1 SSW 19 22 10 12 1021.6 - -
30/02:40pm 10.9 6.0 4.0 62 3.1 SSW 19 22 10 12 1021.6 - -
30/02:30pm 10.9 6.3 3.9 62 3.1 SSW 17 26 9 14 1021.5 - -
30/02:20pm 10.9 5.9 3.4 60 3.3 S 19 22 10 12 1021.6 - -
30/02:10pm 10.9 5.8 3.1 58 3.4 S 19 24 10 13 1021.7 - -
30/02:00pm 11.0 6.0 3.6 60 3.3 S 19 24 10 13 1021.7 - -
30/01:50pm 11.0 6.4 3.7 60 3.2 S 17 26 9 14 1021.8 - -
30/01:40pm 10.9 5.8 3.3 59 3.3 S 19 26 10 14 1021.7 - -
30/01:30pm 11.0 5.9 3.1 58 3.4 S 19 26 10 14 1021.9 - -
30/01:20pm 11.0 5.9 3.0 58 3.5 S 19 26 10 14 1021.8 - -
30/01:10pm 10.9 5.1 2.3 55 3.7 S 22 28 12 15 1021.7 - -
30/01:00pm 10.9 5.1 2.2 55 3.7 SSE 22 28 12 15 1021.7 - -
30/12:50pm 10.9 4.8 2.9 58 3.5 SSE 24 28 13 15 1021.7 - -
30/12:40pm 10.9 4.5 3.0 58 3.4 S 26 32 14 17 1021.7 - -
30/12:30pm 10.9 4.6 3.9 62 3.1 SSE 26 33 14 18 1021.7 - -
30/12:20pm 10.9 5.0 4.1 63 3.0 SSE 24 32 13 17 1021.8 - -
30/12:10pm 10.8 4.9 4.0 63 3.0 SSE 24 30 13 16 1021.7 - -
30/12:00pm 10.8 3.9 4.5 65 2.8 SSE 30 33 16 18 1021.7 - -
30/11:50am 10.9 4.4 4.8 66 2.8 SSE 28 35 15 19 1021.8 - -
30/11:40am 10.9 4.4 4.9 66 2.7 SSE 28 33 15 18 1021.9 - -
30/11:30am 10.9 4.8 5.0 67 2.7 SSE 26 33 14 18 1022.0 - -
30/11:20am 10.9 5.2 4.9 66 2.7 SSE 24 30 13 16 1022.0 - -
30/11:10am 11.1 5.7 4.5 64 3.0 SSE 22 32 12 17 1022.2 - -
30/11:00am 10.9 5.6 4.8 66 2.8 S 22 26 12 14 1022.3 - -
30/10:50am 10.7 5.0 4.7 66 2.7 S 24 30 13 16 1022.5 - -
30/10:40am 10.8 4.7 4.9 67 2.7 S 26 32 14 17 1022.8 - -
30/10:30am 10.8 5.4 4.7 66 2.8 SSE 22 30 12 16 1022.7 - -
30/10:20am 10.7 5.7 4.8 67 2.7 S 20 26 11 14 1023.0 - -
30/10:10am 10.7 5.8 4.9 67 2.6 SSE 20 26 11 14 1022.9 - -

Other Formats:

Comma delimited format used in spreadsheet applications
http://www.bom.gov.au/fwo/IDV60801/IDV60801.55039.axf

JavaScript Object Notation format (JSON) in row-major order
http://www.bom.gov.au/fwo/IDV60801/IDV60801.55039.json